createdAt,value
2017-12-22T00:02:35.729Z,9.27
2017-12-22T00:05:05.468Z,9.50
2017-12-22T00:07:35.005Z,9.03
2017-12-22T00:10:03.055Z,9.63
2017-12-22T00:12:32.094Z,9.97
2017-12-22T00:14:59.942Z,9.63
2017-12-22T00:17:28.018Z,9.50
2017-12-22T00:19:56.187Z,9.93
2017-12-22T00:22:29.240Z,10.53
2017-12-22T00:24:57.248Z,9.47
2017-12-22T00:27:26.132Z,9.50
2017-12-22T00:29:54.572Z,8.93
2017-12-22T00:32:23.192Z,8.97
2017-12-22T00:34:51.704Z,8.30
2017-12-22T00:37:19.911Z,9.43
2017-12-22T00:39:49.325Z,9.10
2017-12-22T00:42:18.697Z,9.00
2017-12-22T00:44:47.957Z,8.90
2017-12-22T00:47:16.008Z,8.90
2017-12-22T00:49:44.638Z,9.10
2017-12-22T00:52:14.737Z,9.50
2017-12-22T00:54:44.752Z,9.40
2017-12-22T00:57:13.403Z,8.40
2017-12-22T00:59:42.058Z,8.63
2017-12-22T01:02:10.012Z,9.23
2017-12-22T01:04:39.499Z,14.93
2017-12-22T01:07:09.411Z,8.40
2017-12-22T01:09:37.877Z,8.50
2017-12-22T01:12:05.996Z,8.37
2017-12-22T01:14:34.382Z,8.20
2017-12-22T01:19:11.327Z,8.00
2017-12-22T01:21:39.645Z,7.63
2017-12-22T01:24:08.404Z,8.27
2017-12-22T01:26:37.572Z,8.23
2017-12-22T01:29:06.950Z,7.93
2017-12-22T01:31:35.546Z,8.43
2017-12-22T01:34:03.828Z,7.73
2017-12-22T01:36:32.865Z,8.57
2017-12-22T01:39:02.452Z,8.57
2017-12-22T01:41:30.803Z,9.00
2017-12-22T01:43:58.884Z,9.20
2017-12-22T01:46:27.008Z,9.53
2017-12-22T01:48:55.588Z,9.13
2017-12-22T01:51:24.031Z,8.97
2017-12-22T01:53:53.057Z,9.00
2017-12-22T01:56:21.337Z,9.63
2017-12-22T01:58:49.986Z,8.63
2017-12-22T02:01:18.776Z,8.97
2017-12-22T02:03:48.776Z,10.20
2017-12-22T02:06:18.075Z,10.13
2017-12-22T02:08:46.364Z,10.17
2017-12-22T02:11:16.039Z,9.80
2017-12-22T02:13:44.742Z,9.83
2017-12-22T02:16:13.297Z,9.97
2017-12-22T02:18:43.071Z,10.83
2017-12-22T02:21:12.599Z,10.80
2017-12-22T02:23:41.627Z,9.80
2017-12-22T02:26:11.252Z,10.77
2017-12-22T02:28:40.219Z,11.30
2017-12-22T02:31:08.813Z,10.87
2017-12-22T02:33:37.956Z,11.27
2017-12-22T02:36:07.087Z,11.63
2017-12-22T02:38:36.439Z,12.40
2017-12-22T02:41:04.583Z,12.43
2017-12-22T02:43:33.110Z,12.97
2017-12-22T02:46:01.013Z,12.80
2017-12-22T02:48:30.444Z,12.77
2017-12-22T02:50:59.419Z,12.80
2017-12-22T02:53:27.848Z,11.93
2017-12-22T02:55:56.036Z,11.83
2017-12-22T02:58:25.085Z,12.13
2017-12-22T03:00:53.288Z,12.37
2017-12-22T03:03:22.080Z,12.77
2017-12-22T03:05:50.250Z,13.73
2017-12-22T03:08:18.288Z,13.93
2017-12-22T03:10:50.966Z,14.47
2017-12-22T03:13:18.762Z,14.80
2017-12-22T03:15:47.041Z,14.93
2017-12-22T03:18:15.044Z,15.47
2017-12-22T03:20:43.631Z,14.90
2017-12-22T03:23:16.687Z,17.77
2017-12-22T03:25:44.569Z,16.43
2017-12-22T03:28:12.414Z,17.17
2017-12-22T03:30:40.855Z,15.57
2017-12-22T03:33:08.825Z,15.87
2017-12-22T03:35:36.874Z,15.13
2017-12-22T03:38:05.621Z,16.20
2017-12-22T03:40:33.526Z,16.40
2017-12-22T03:43:01.669Z,16.83
2017-12-22T03:45:29.755Z,16.23
2017-12-22T03:47:57.791Z,17.23
2017-12-22T03:50:25.817Z,17.27
2017-12-22T03:52:54.584Z,16.37
2017-12-22T03:55:27.843Z,15.30
2017-12-22T03:57:56.466Z,16.77
2017-12-22T04:00:24.369Z,15.93
2017-12-22T04:02:52.488Z,16.40
2017-12-22T04:05:20.361Z,15.50
2017-12-22T04:07:48.313Z,15.33
2017-12-22T04:10:16.407Z,14.60
2017-12-22T04:12:44.268Z,14.70
2017-12-22T04:15:12.302Z,14.73
2017-12-22T04:17:41.343Z,14.73
2017-12-22T04:20:09.187Z,14.80
2017-12-22T04:22:37.173Z,14.60
2017-12-22T04:25:05.248Z,15.07
2017-12-22T04:27:34.362Z,15.23
2017-12-22T04:30:02.546Z,15.13
2017-12-22T04:32:31.997Z,15.93
2017-12-22T04:35:00.630Z,15.90
2017-12-22T04:37:28.782Z,16.43
2017-12-22T04:39:59.446Z,16.00
2017-12-22T04:42:33.051Z,15.63
2017-12-22T04:45:01.366Z,16.87
2017-12-22T04:47:29.662Z,16.30
2017-12-22T04:49:57.556Z,17.73
2017-12-22T04:52:25.819Z,16.37
2017-12-22T04:54:53.810Z,16.20
2017-12-22T04:57:21.699Z,14.87
2017-12-22T04:59:49.917Z,15.70
2017-12-22T05:02:18.568Z,16.20
2017-12-22T05:04:46.564Z,15.10
2017-12-22T05:07:16.520Z,15.80
2017-12-22T05:09:44.390Z,15.37
2017-12-22T05:12:12.373Z,15.30
2017-12-22T05:14:40.698Z,16.03
2017-12-22T05:17:08.612Z,16.07
2017-12-22T05:19:36.623Z,14.37
2017-12-22T05:22:04.697Z,15.23
2017-12-22T05:24:32.832Z,14.50
2017-12-22T05:27:01.498Z,16.33
2017-12-22T05:29:29.381Z,14.80
2017-12-22T05:31:57.863Z,15.43
2017-12-22T05:34:25.687Z,15.43
2017-12-22T05:36:53.976Z,15.57
2017-12-22T05:39:22.200Z,17.77
2017-12-22T05:41:50.239Z,16.97
2017-12-22T05:44:19.205Z,16.07
2017-12-22T05:46:47.126Z,16.27
2017-12-22T05:49:15.236Z,16.40
2017-12-22T05:51:45.011Z,15.00
2017-12-22T05:54:12.930Z,17.27
2017-12-22T05:56:41.031Z,16.07
2017-12-22T05:59:08.947Z,15.27
2017-12-22T06:01:36.998Z,15.13
2017-12-22T06:04:05.394Z,16.43
2017-12-22T06:06:34.100Z,17.80
2017-12-22T06:09:03.115Z,16.23
2017-12-22T06:11:34.261Z,16.93
2017-12-22T06:14:02.306Z,16.83
2017-12-22T06:16:30.641Z,16.47
2017-12-22T06:18:58.642Z,16.27
2017-12-22T06:21:26.531Z,40.07
2017-12-22T06:23:55.815Z,15.47
2017-12-22T06:26:27.550Z,16.37
2017-12-22T06:28:58.363Z,16.13
2017-12-22T06:31:30.100Z,15.67
2017-12-22T06:33:57.995Z,15.93
2017-12-22T06:36:38.006Z,16.90
2017-12-22T06:39:13.695Z,15.57
2017-12-22T06:41:48.477Z,15.13
2017-12-22T06:44:16.800Z,15.67
2017-12-22T06:46:45.488Z,14.60
2017-12-22T06:49:17.803Z,14.43
2017-12-22T06:51:52.232Z,14.27
2017-12-22T06:54:20.158Z,13.53
2017-12-22T06:56:48.971Z,12.13
2017-12-22T06:59:16.915Z,11.90
2017-12-22T07:01:45.926Z,11.97
2017-12-22T07:04:15.617Z,12.17
2017-12-22T07:06:43.634Z,12.73
2017-12-22T07:09:11.614Z,12.63
2017-12-22T07:11:41.055Z,12.97
2017-12-22T07:14:09.838Z,12.77
2017-12-22T07:16:38.578Z,11.67
2017-12-22T07:19:06.788Z,12.60
2017-12-22T07:21:54.065Z,12.57
2017-12-22T07:24:48.821Z,12.43
2017-12-22T07:27:31.725Z,10.83
2017-12-22T07:30:45.889Z,13.00
2017-12-22T07:35:59.851Z,12.87
2017-12-22T07:38:32.930Z,12.37
2017-12-22T07:41:01.372Z,13.20
2017-12-22T07:43:29.246Z,10.47
2017-12-22T07:45:57.273Z,12.37
2017-12-22T07:48:56.123Z,11.80
2017-12-22T07:51:29.243Z,11.97
2017-12-22T07:53:58.880Z,11.70
2017-12-22T07:56:29.750Z,11.10
2017-12-22T07:58:57.727Z,10.17
2017-12-22T08:01:29.173Z,10.67
2017-12-22T08:03:59.063Z,10.07
2017-12-22T08:06:27.618Z,10.23
2017-12-22T08:08:56.730Z,10.10
2017-12-22T08:11:25.728Z,9.50
2017-12-22T08:13:53.622Z,9.07
2017-12-22T08:16:22.590Z,9.67
2017-12-22T08:18:50.930Z,10.40
2017-12-22T08:21:18.850Z,9.50
2017-12-22T08:23:52.298Z,9.27
2017-12-22T08:26:20.434Z,9.70
2017-12-22T08:29:04.193Z,9.73
2017-12-22T08:31:54.112Z,8.63
2017-12-22T08:34:24.010Z,10.27
2017-12-22T08:36:52.648Z,8.80
2017-12-22T08:42:41.902Z,8.37
2017-12-22T08:45:11.814Z,7.83
2017-12-22T08:47:39.786Z,7.50
2017-12-22T08:50:08.055Z,8.80
2017-12-22T08:52:36.313Z,7.47
2017-12-22T08:55:42.202Z,6.27
2017-12-22T08:58:10.188Z,6.43
2017-12-22T09:00:38.269Z,5.63
2017-12-22T09:03:12.460Z,6.43
2017-12-22T09:05:44.176Z,6.47
2017-12-22T09:08:12.097Z,6.03
2017-12-22T09:10:41.237Z,5.60
2017-12-22T09:13:09.070Z,5.20
2017-12-22T09:15:37.866Z,5.57
2017-12-22T09:18:06.597Z,4.73
2017-12-22T09:20:35.268Z,4.97
2017-12-22T09:23:13.316Z,5.70
2017-12-22T09:25:41.243Z,5.17
2017-12-22T09:28:09.367Z,5.20
2017-12-22T09:30:37.283Z,5.50
2017-12-22T09:33:20.527Z,6.60
2017-12-22T09:35:49.069Z,6.27
2017-12-22T09:38:17.938Z,6.30
2017-12-22T09:40:51.451Z,7.97
2017-12-22T09:43:38.851Z,7.70
2017-12-22T09:46:12.476Z,6.17
2017-12-22T09:48:40.647Z,6.33
2017-12-22T09:51:08.845Z,5.70
2017-12-22T09:53:38.452Z,6.40
2017-12-22T09:56:07.257Z,6.70
2017-12-22T09:58:36.153Z,5.57
2017-12-22T10:01:05.089Z,6.43
2017-12-22T10:03:32.995Z,5.93
2017-12-22T10:06:00.969Z,5.40
2017-12-22T10:08:29.849Z,5.00
2017-12-22T10:10:59.882Z,5.87
2017-12-22T10:13:29.677Z,5.30
2017-12-22T10:16:00.963Z,6.43
2017-12-22T10:18:30.497Z,6.20
2017-12-22T10:21:03.540Z,6.73
2017-12-22T10:23:36.208Z,11.23
2017-12-22T10:26:08.558Z,7.00
2017-12-22T10:28:38.057Z,6.40
2017-12-22T10:31:10.158Z,6.00
2017-12-22T10:33:42.524Z,6.10
2017-12-22T10:36:11.831Z,6.10
2017-12-22T10:39:06.758Z,8.23
2017-12-22T10:41:36.800Z,7.63
2017-12-22T10:44:06.051Z,5.77
2017-12-22T10:46:37.527Z,4.93
2017-12-22T10:49:12.948Z,4.20
2017-12-22T10:54:29.242Z,4.03
2017-12-22T10:56:58.274Z,3.03
2017-12-22T10:59:27.468Z,4.20
2017-12-22T11:01:57.626Z,3.40
2017-12-22T11:04:25.837Z,4.10
2017-12-22T11:06:54.482Z,4.20
2017-12-22T11:09:23.392Z,4.37
2017-12-22T11:11:53.503Z,4.20
2017-12-22T11:14:27.607Z,4.90
2017-12-22T11:16:57.337Z,4.03
2017-12-22T11:19:25.852Z,4.37
2017-12-22T11:21:54.049Z,4.07
2017-12-22T11:24:25.193Z,4.27
2017-12-22T11:26:57.010Z,5.03
2017-12-22T11:29:33.505Z,3.97
2017-12-22T11:32:03.688Z,3.30
2017-12-22T11:35:03.028Z,3.67
2017-12-22T11:37:40.909Z,3.57
2017-12-22T11:40:10.434Z,4.43
2017-12-22T11:42:38.726Z,4.80
2017-12-22T11:45:08.953Z,3.87
2017-12-22T11:47:46.137Z,6.50
2017-12-22T11:50:39.504Z,6.03
2017-12-22T11:53:09.619Z,4.27
2017-12-22T11:55:45.854Z,4.60
2017-12-22T11:58:22.607Z,4.07
2017-12-22T12:00:51.515Z,3.73
2017-12-22T12:03:19.541Z,4.10
2017-12-22T12:05:50.648Z,4.50
2017-12-22T12:08:18.620Z,6.00
2017-12-22T12:10:51.509Z,4.80
2017-12-22T12:13:22.272Z,4.37
2017-12-22T12:15:51.720Z,5.93
2017-12-22T12:18:21.491Z,6.17
2017-12-22T12:20:58.857Z,6.23
2017-12-22T12:23:28.123Z,6.57
2017-12-22T12:25:57.830Z,7.83
2017-12-22T12:28:25.830Z,7.63
2017-12-22T12:30:56.279Z,7.63
2017-12-22T12:33:24.880Z,7.70
2017-12-22T12:35:54.847Z,7.53
2017-12-22T12:38:26.117Z,7.60
2017-12-22T12:40:56.403Z,9.43
2017-12-22T12:47:09.631Z,8.13
2017-12-22T12:49:38.469Z,8.20
2017-12-22T12:52:06.582Z,8.43
2017-12-22T12:54:38.269Z,9.83
2017-12-22T12:57:07.227Z,9.63
2017-12-22T12:59:36.323Z,10.50
2017-12-22T13:02:08.314Z,7.97
2017-12-22T13:04:39.441Z,7.20
2017-12-22T13:07:08.512Z,9.40
2017-12-22T13:09:39.057Z,7.10
2017-12-22T13:12:10.334Z,10.63
2017-12-22T13:15:09.027Z,9.83
2017-12-22T13:17:38.309Z,9.03
2017-12-22T13:20:08.126Z,8.97
2017-12-22T13:22:50.934Z,8.03
2017-12-22T13:25:42.653Z,9.03
2017-12-22T13:28:14.532Z,9.20
2017-12-22T13:30:44.689Z,10.43
2017-12-22T13:33:31.154Z,9.47
2017-12-22T13:36:04.663Z,8.70
2017-12-22T13:38:33.621Z,10.40
2017-12-22T13:41:06.102Z,9.90
2017-12-22T13:43:35.777Z,9.53
2017-12-22T13:46:06.726Z,9.40
2017-12-22T13:48:37.130Z,9.90
2017-12-22T13:51:05.604Z,9.70
2017-12-22T13:53:47.290Z,10.13
2017-12-22T13:56:16.693Z,9.43
2017-12-22T13:58:45.440Z,10.47
2017-12-22T14:01:15.647Z,10.17
2017-12-22T14:06:20.429Z,11.17
2017-12-22T14:08:48.352Z,10.50
2017-12-22T14:11:17.765Z,10.80
2017-12-22T14:13:47.348Z,11.40
2017-12-22T14:16:15.991Z,12.43
2017-12-22T14:18:44.395Z,12.47
2017-12-22T14:21:15.719Z,13.00
2017-12-22T14:23:44.900Z,12.93
2017-12-22T14:26:16.514Z,12.93
2017-12-22T14:28:44.642Z,11.97
2017-12-22T14:31:16.897Z,12.73
2017-12-22T14:34:05.640Z,12.57
2017-12-22T14:39:54.424Z,11.27
2017-12-22T14:42:22.562Z,13.20
2017-12-22T14:44:52.851Z,12.33
2017-12-22T14:47:32.279Z,12.77
2017-12-22T14:50:03.270Z,13.10
2017-12-22T14:52:51.712Z,13.10
2017-12-22T14:55:21.561Z,13.17
2017-12-22T14:57:49.892Z,15.90
2017-12-22T15:00:18.396Z,14.60
2017-12-22T15:02:49.989Z,13.53
2017-12-22T15:05:18.870Z,13.43
2017-12-22T15:07:47.441Z,38.37
2017-12-22T15:10:43.912Z,18.60
2017-12-22T15:14:00.931Z,16.83
2017-12-22T15:16:30.024Z,15.90
2017-12-22T15:18:57.952Z,14.70
2017-12-22T15:21:26.474Z,18.13
2017-12-22T15:23:54.573Z,12.70
2017-12-22T15:26:50.581Z,13.47
2017-12-22T15:29:20.231Z,13.77
2017-12-22T15:31:48.926Z,14.60
2017-12-22T15:34:23.123Z,20.67
2017-12-22T15:36:55.591Z,16.87
2017-12-22T15:39:36.106Z,15.57
2017-12-22T15:42:12.734Z,14.50
2017-12-22T15:44:42.626Z,15.67
2017-12-22T15:47:29.857Z,14.57
2017-12-22T15:49:59.342Z,13.73
2017-12-22T15:52:29.413Z,14.43
2017-12-22T15:55:04.254Z,14.10
2017-12-22T15:57:33.941Z,15.43
2017-12-22T16:00:05.926Z,15.17
2017-12-22T16:02:35.064Z,15.90
2017-12-22T16:05:03.848Z,16.40
2017-12-22T16:07:33.126Z,17.33
2017-12-22T16:10:04.901Z,17.93
2017-12-22T16:12:34.202Z,14.93
2017-12-22T16:15:03.620Z,16.50
2017-12-22T16:17:33.603Z,20.77
2017-12-22T16:20:02.909Z,18.30
2017-12-22T16:22:38.276Z,18.50
2017-12-22T16:25:07.199Z,27.30
2017-12-22T16:27:47.693Z,24.67
2017-12-22T16:30:16.721Z,25.90
2017-12-22T16:32:45.204Z,20.00
2017-12-22T16:35:14.845Z,16.50
2017-12-22T16:37:43.882Z,18.47
2017-12-22T16:40:12.727Z,18.00
2017-12-22T16:42:41.883Z,16.27
2017-12-22T16:45:10.098Z,15.60
2017-12-22T16:47:39.584Z,17.33
2017-12-22T16:50:08.336Z,25.63
2017-12-22T16:52:42.136Z,16.30
2017-12-22T16:55:12.177Z,16.03
2017-12-22T16:57:40.968Z,15.57
2017-12-22T17:00:10.675Z,16.20
2017-12-22T17:02:39.647Z,17.47
2017-12-22T17:05:11.043Z,16.23
2017-12-22T17:07:41.055Z,16.60
2017-12-22T17:10:10.132Z,15.80
2017-12-22T17:12:41.461Z,16.30
2017-12-22T17:15:10.377Z,16.40
2017-12-22T17:17:40.673Z,16.03
2017-12-22T17:20:13.546Z,18.87
2017-12-22T17:22:45.085Z,14.70
2017-12-22T17:25:15.289Z,15.67
2017-12-22T17:27:44.858Z,15.17
2017-12-22T17:30:16.694Z,15.63
2017-12-22T17:32:45.744Z,15.57
2017-12-22T17:35:15.805Z,16.40
2017-12-22T17:37:52.528Z,16.23
2017-12-22T17:40:22.522Z,15.37
2017-12-22T17:42:51.973Z,15.80
2017-12-22T17:45:21.583Z,16.53
2017-12-22T17:47:50.148Z,17.07
2017-12-22T17:50:20.711Z,17.60
2017-12-22T17:52:50.469Z,23.23
2017-12-22T17:55:20.334Z,15.90
2017-12-22T17:57:53.214Z,15.40
2017-12-22T18:00:24.465Z,17.10
2017-12-22T18:02:52.945Z,18.30
2017-12-22T18:05:35.865Z,17.17
2017-12-22T18:08:17.818Z,18.60
2017-12-22T18:10:49.464Z,16.40
2017-12-22T18:13:55.058Z,17.97
2017-12-22T18:16:25.889Z,17.10
2017-12-22T18:18:54.649Z,18.93
2017-12-22T18:21:38.804Z,19.70
2017-12-22T18:24:08.334Z,22.50
2017-12-22T18:26:37.435Z,17.70
2017-12-22T18:29:06.497Z,18.17
2017-12-22T18:31:40.668Z,17.90
2017-12-22T18:34:08.854Z,16.97
2017-12-22T18:36:37.085Z,17.20
2017-12-22T18:39:05.967Z,18.63
2017-12-22T18:41:36.185Z,17.97
2017-12-22T18:44:05.519Z,17.60
2017-12-22T18:47:21.739Z,17.73
2017-12-22T18:49:49.885Z,17.97
2017-12-22T18:52:20.812Z,18.83
2017-12-22T18:54:49.873Z,17.73
2017-12-22T18:57:22.309Z,17.73
2017-12-22T18:59:52.516Z,18.33
2017-12-22T19:02:20.682Z,19.07
2017-12-22T19:04:48.610Z,18.37
2017-12-22T19:07:16.794Z,19.37
2017-12-22T19:09:46.413Z,19.10
2017-12-22T19:12:17.664Z,21.17
2017-12-22T19:14:45.734Z,19.57
2017-12-22T19:17:14.481Z,20.30
2017-12-22T19:19:43.130Z,19.63
2017-12-22T19:22:12.674Z,19.73
2017-12-22T19:24:43.533Z,21.00
2017-12-22T19:27:11.831Z,21.20
2017-12-22T19:29:40.469Z,20.67
2017-12-22T19:32:09.606Z,19.33
2017-12-22T19:34:48.297Z,20.60
2017-12-22T19:37:53.955Z,21.43
2017-12-22T19:40:21.907Z,21.73
2017-12-22T19:42:50.791Z,21.87
2017-12-22T19:45:18.754Z,22.90
2017-12-22T19:47:51.410Z,21.80
2017-12-22T19:50:20.182Z,20.37
2017-12-22T19:52:49.497Z,22.03
2017-12-22T19:55:19.674Z,20.13
2017-12-22T19:57:48.280Z,20.93
2017-12-22T20:00:26.521Z,21.27
2017-12-22T20:02:56.794Z,21.10
2017-12-22T20:05:24.697Z,20.83
2017-12-22T20:07:53.007Z,20.70
2017-12-22T20:10:21.183Z,21.80
2017-12-22T20:13:01.486Z,21.23
2017-12-22T20:15:29.946Z,21.63
2017-12-22T20:17:57.980Z,21.30
2017-12-22T20:20:26.488Z,21.13
2017-12-22T20:22:54.836Z,22.00
2017-12-22T20:25:26.422Z,22.47
2017-12-22T20:27:54.687Z,24.53
2017-12-22T20:30:23.493Z,21.37
2017-12-22T20:32:51.958Z,20.27
2017-12-22T20:35:20.931Z,21.03
2017-12-22T20:37:50.284Z,20.87
2017-12-22T20:40:18.300Z,21.90
2017-12-22T20:42:47.525Z,21.77
2017-12-22T20:45:20.934Z,26.10
2017-12-22T20:50:33.488Z,25.07
2017-12-22T20:53:01.509Z,24.13
2017-12-22T20:55:33.552Z,22.43
2017-12-22T20:58:02.414Z,22.43
2017-12-22T21:00:31.285Z,22.20
2017-12-22T21:03:00.549Z,22.37
2017-12-22T21:05:28.743Z,21.97
2017-12-22T21:07:57.019Z,22.97
2017-12-22T21:10:29.018Z,23.43
2017-12-22T21:13:02.249Z,23.93
2017-12-22T21:15:34.468Z,24.37
2017-12-22T21:18:03.305Z,24.77
2017-12-22T21:20:31.980Z,26.70
2017-12-22T21:25:47.242Z,33.80
2017-12-22T21:28:15.637Z,22.10
2017-12-22T21:30:45.305Z,22.70
2017-12-22T21:33:22.381Z,23.40
2017-12-22T21:35:51.790Z,22.83
2017-12-22T21:38:19.759Z,22.67
2017-12-22T21:40:48.214Z,22.50
2017-12-22T21:43:16.295Z,23.30
2017-12-22T21:45:46.301Z,24.47
2017-12-22T21:48:15.710Z,23.10
2017-12-22T21:50:43.661Z,23.07
2017-12-22T21:53:18.098Z,24.00
2017-12-22T21:55:47.093Z,23.20
2017-12-22T21:58:15.786Z,23.27
2017-12-22T22:00:43.962Z,22.77
2017-12-22T22:03:12.001Z,23.87
2017-12-22T22:05:41.784Z,22.40
2017-12-22T22:08:11.674Z,22.23
2017-12-22T22:10:39.664Z,21.23
2017-12-22T22:13:14.293Z,20.40
2017-12-22T22:15:42.759Z,19.50
2017-12-22T22:18:13.561Z,20.23
2017-12-22T22:20:45.896Z,19.67
2017-12-22T22:23:16.428Z,19.43
2017-12-22T22:25:44.703Z,19.57
2017-12-22T22:28:12.687Z,20.53
2017-12-22T22:30:42.213Z,20.77
2017-12-22T22:33:10.669Z,21.33
2017-12-22T22:35:41.921Z,20.70
2017-12-22T22:38:10.117Z,20.70
2017-12-22T22:40:38.402Z,20.83
2017-12-22T22:43:06.510Z,21.37
2017-12-22T22:45:35.238Z,21.17
2017-12-22T22:48:07.142Z,21.07
2017-12-22T22:50:36.493Z,20.80
2017-12-22T22:53:06.916Z,22.03
2017-12-22T22:55:35.025Z,20.07
2017-12-22T22:58:03.720Z,22.10
2017-12-22T23:00:32.331Z,19.90
2017-12-22T23:03:01.423Z,21.07
2017-12-22T23:05:29.530Z,20.93
2017-12-22T23:07:57.483Z,20.87
2017-12-22T23:10:27.485Z,21.50
2017-12-22T23:13:00.564Z,20.97
2017-12-22T23:15:28.641Z,19.43
2017-12-22T23:17:57.329Z,19.60
2017-12-22T23:20:27.724Z,17.60
2017-12-22T23:22:56.182Z,17.57
2017-12-22T23:25:29.075Z,17.57
2017-12-22T23:27:58.599Z,18.73
2017-12-22T23:30:27.813Z,17.90
2017-12-22T23:32:57.780Z,17.93
2017-12-22T23:35:26.226Z,18.60
2017-12-22T23:37:54.437Z,18.07
2017-12-22T23:40:24.442Z,17.73
2017-12-22T23:42:53.322Z,17.87
2017-12-22T23:45:28.842Z,17.83
2017-12-22T23:47:59.861Z,17.97
2017-12-22T23:50:28.217Z,16.90
2017-12-22T23:52:56.806Z,17.57
2017-12-22T23:55:25.071Z,17.93
2017-12-22T23:57:56.326Z,18.20
